St. Paul Lake Elmo, MN

6:53 PM CST on November 18, 2019 (GMT -0600)
St. Paul Lake Elmo

Weather History for K21D - September, 2019

Change the Weather History Date:

Monday, September 23, 2019

  Actual Average (WUND) Record (WUND)
Temperature  
Mean Temperature 62 °F -  
Max Temperature 73 °F - - (-1)
Min Temperature 51 °F - - (-1)
Degree Days  
Heating Degree Days 3    
Growing Degree Days 12 (Base 50)    
Moisture  
Dew Point 52 °F    
Average Humidity 77    
Maximum Humidity 100    
Minimum Humidity 44    
Precipitation  
Precipitation 0.00 in - - ()
Sea Level Pressure  
Sea Level Pressure 29.96 in    
Wind  
Wind Speed 6 mph (WSW)    
Max Wind Speed 13 mph    
Max Gust Speed 20 mph    
Visibility 10 miles    
Events      
Averages and records for this station are not official NWS values.
T = Trace of Precipitation, MM = Missing Value Source: NWS Daily Summary

Daily Weather History Graph

Daily Weather History Graph

Search for Another Location

Airport or City:

Astronomy

Sep. 23, 2019 Rise Set
Actual Time 6:59 AM CDT 7:07 PM CDT
Civil Twilight 6:30 AM CDT 7:36 PM CDT
Nautical Twilight 5:55 AM CDT 8:10 PM CDT
Astronomical Twilight 5:20 AM CDT 8:46 PM CDT
Moon 12:26 AM CDT (9/23) 4:17 PM CDT (9/23)
Length of Visible Light 13h 06m
Length of Day
12h 07m
Waning Crescent, 33% of the Moon is Illuminated
Sep 23
Waning Crescent
Sep 28
New
Oct 5
First Quarter
Oct 13
Full
Oct 21
Last Quarter

Hourly Weather History & Observations

Time (CDT) Temp. Dew Point Humidity Pressure Visibility Wind Dir Wind Speed Gust Speed Precip Events Conditions
12:15 AM 55.4 °F 55.4 °F 100% 29.93 in 10.0 mi West 8.1 mph - N/A   Scattered Clouds
12:35 AM 57.2 °F 55.4 °F 94% 29.93 in 10.0 mi West 6.9 mph - N/A   Clear
12:39 AM 55.4 °F 55.4 °F 100% 29.93 in 10.0 mi West 6.9 mph - N/A   Clear
12:57 AM 57.2 °F 55.4 °F 94% 29.93 in 10.0 mi WSW 6.9 mph - N/A   Scattered Clouds
1:16 AM 55.4 °F 53.6 °F 94% 29.93 in 10.0 mi WSW 5.8 mph - N/A   Clear
1:35 AM 55.4 °F 53.6 °F 94% 29.93 in 10.0 mi WSW 4.6 mph - N/A   Clear
1:36 AM 55.4 °F 53.6 °F 94% 29.93 in 10.0 mi WSW 4.6 mph - N/A   Clear
1:55 AM 55.4 °F 53.6 °F 94% 29.93 in 10.0 mi WSW 5.8 mph - N/A   Clear
1:56 AM 55.4 °F 53.6 °F 94% 29.93 in 10.0 mi WSW 5.8 mph - N/A   Clear
2:18 AM 55.4 °F 53.6 °F 94% 29.93 in 10.0 mi WSW 6.9 mph - N/A   Clear
2:37 AM 55.4 °F 51.8 °F 88% 29.93 in 10.0 mi WSW 4.6 mph - N/A   Clear
2:55 AM 53.6 °F 51.8 °F 94% 29.93 in 10.0 mi WSW 4.6 mph - N/A   Clear
2:56 AM 53.6 °F 51.8 °F 94% 29.93 in 10.0 mi WSW 5.8 mph - N/A   Clear
3:15 AM 53.6 °F 51.8 °F 94% 29.93 in 10.0 mi WSW 6.9 mph - N/A   Clear
3:35 AM 55.4 °F 51.8 °F 88% 29.93 in 10.0 mi WSW 6.9 mph - N/A   Clear
3:40 AM 55.4 °F 51.8 °F 88% 29.93 in 10.0 mi WSW 8.1 mph - N/A   Clear
3:57 AM 53.6 °F 51.8 °F 94% 29.94 in 10.0 mi West 6.9 mph - N/A   Clear
4:16 AM 53.6 °F 51.8 °F 94% 29.94 in 10.0 mi WSW 6.9 mph - N/A   Clear
4:35 AM 55.4 °F 51.8 °F 88% 29.94 in 10.0 mi WSW 6.9 mph - N/A   Mostly Cloudy
4:36 AM 55.4 °F 51.8 °F 88% 29.94 in 10.0 mi WSW 6.9 mph - N/A   Mostly Cloudy
4:55 AM 53.6 °F 51.8 °F 94% 29.94 in 10.0 mi WSW 5.8 mph - N/A   Scattered Clouds
5:19 AM 53.6 °F 51.8 °F 94% 29.95 in 10.0 mi West 3.5 mph - N/A   Clear
5:36 AM 53.6 °F 51.8 °F 94% 29.95 in 10.0 mi West 3.5 mph - N/A   Clear
5:55 AM 53.6 °F 51.8 °F 94% 29.95 in 10.0 mi WSW 3.5 mph - N/A   Clear
5:56 AM 53.6 °F 51.8 °F 94% 29.95 in 10.0 mi WSW 3.5 mph - N/A   Clear
6:15 AM 51.8 °F 51.8 °F 100% 29.95 in 10.0 mi WSW 3.5 mph - N/A   Clear
6:16 AM 51.8 °F 51.8 °F 100% 29.95 in 10.0 mi Calm Calm - N/A   Clear
6:35 AM 51.8 °F 51.8 °F 100% 29.96 in 10.0 mi WSW 3.5 mph - N/A   Clear
6:40 AM 51.8 °F 51.8 °F 100% 29.96 in 10.0 mi WSW 3.5 mph - N/A   Clear
6:57 AM 53.6 °F 51.8 °F 94% 29.96 in 10.0 mi WSW 4.6 mph - N/A   Clear
7:16 AM 53.6 °F 51.8 °F 94% 29.97 in 10.0 mi WSW 6.9 mph - N/A   Clear
7:35 AM 53.6 °F 51.8 °F 94% 29.97 in 10.0 mi WSW 5.8 mph - N/A   Clear
7:55 AM 53.6 °F 51.8 °F 94% 29.98 in 10.0 mi WSW 4.6 mph - N/A   Clear
8:19 AM 55.4 °F 51.8 °F 88% 29.98 in 10.0 mi WSW 5.8 mph - N/A   Clear
8:36 AM 55.4 °F 51.8 °F 88% 29.99 in 10.0 mi West 4.6 mph - N/A   Clear
8:55 AM 59.0 °F 51.8 °F 77% 29.99 in 10.0 mi West 4.6 mph - N/A   Clear
9:15 AM 59.0 °F 53.6 °F 82% 30.00 in 10.0 mi West 4.6 mph - N/A   Clear
9:16 AM 59.0 °F 53.6 °F 82% 30.00 in 10.0 mi West 4.6 mph - N/A   Clear
9:35 AM 60.8 °F 53.6 °F 77% 30.00 in 10.0 mi West 4.6 mph - N/A   Clear
9:57 AM 62.6 °F 53.6 °F 72% 30.01 in 10.0 mi West 6.9 mph - N/A   Clear
10:15 AM 62.6 °F 53.6 °F 72% 30.01 in 10.0 mi WSW 5.8 mph - N/A   Clear
10:35 AM 64.4 °F 53.6 °F 68% 30.01 in 10.0 mi West 9.2 mph - N/A   Clear
10:55 AM 64.4 °F 53.6 °F 68% 30.01 in 10.0 mi West 9.2 mph - N/A   Clear
10:56 AM 64.4 °F 53.6 °F 68% 30.01 in 10.0 mi West 8.1 mph - N/A   Clear
11:19 AM 66.2 °F 53.6 °F 64% 30.01 in 10.0 mi West 8.1 mph - N/A   Clear
11:36 AM 68.0 °F 53.6 °F 60% 30.01 in 10.0 mi West 10.4 mph - N/A   Clear
11:56 AM 69.8 °F 53.6 °F 56% 30.01 in 10.0 mi West 9.2 mph - N/A   Clear
12:15 PM 69.8 °F 53.6 °F 56% 30.01 in 10.0 mi WSW 9.2 mph - N/A   Clear
12:16 PM 69.8 °F 53.6 °F 56% 30.01 in 10.0 mi WSW 9.2 mph - N/A   Clear
12:35 PM 69.8 °F 53.6 °F 56% 30.01 in 10.0 mi West 6.9 mph - N/A   Clear
12:39 PM 71.6 °F 53.6 °F 53% 30.01 in 10.0 mi West 10.4 mph 16.1 mph N/A   Clear
12:58 PM 71.6 °F 53.6 °F 53% 30.00 in 10.0 mi WSW 9.2 mph - N/A   Clear
1:15 PM 71.6 °F 53.6 °F 53% 30.00 in 10.0 mi WSW 8.1 mph - N/A   Clear
1:35 PM 71.6 °F 53.6 °F 53% 29.99 in 10.0 mi WSW 10.4 mph - N/A   Clear
1:36 PM 71.6 °F 53.6 °F 53% 29.99 in 10.0 mi WSW 10.4 mph - N/A   Clear
1:55 PM 71.6 °F 51.8 °F 50% 29.99 in 7.0 mi West 9.2 mph - N/A   Clear
1:56 PM 71.6 °F 51.8 °F 50% 29.99 in 7.0 mi West 9.2 mph - N/A   Clear
2:18 PM 71.6 °F 51.8 °F 50% 29.98 in 10.0 mi West 11.5 mph - N/A   Clear
2:37 PM 71.6 °F 50.0 °F 46% 29.98 in 10.0 mi WSW 12.7 mph 17.3 mph N/A   Clear
2:55 PM 73.4 °F 50.0 °F 44% 29.98 in 10.0 mi WSW 12.7 mph 17.3 mph N/A   Clear
2:56 PM 73.4 °F 50.0 °F 44% 29.98 in 10.0 mi WSW 10.4 mph 17.3 mph N/A   Clear
3:16 PM 73.4 °F 50.0 °F 44% 29.97 in 10.0 mi WSW 8.1 mph - N/A   Clear
3:35 PM 73.4 °F 50.0 °F 44% 29.97 in 10.0 mi West 12.7 mph 19.6 mph N/A   Clear
3:39 PM 71.6 °F 50.0 °F 46% 29.97 in 10.0 mi West 12.7 mph - N/A   Clear
3:58 PM 73.4 °F 50.0 °F 44% 29.97 in 10.0 mi West 12.7 mph - N/A   Clear
4:15 PM 71.6 °F 50.0 °F 46% 29.96 in 10.0 mi WNW 9.2 mph - N/A   Clear
4:35 PM 71.6 °F 50.0 °F 46% 29.96 in 10.0 mi West 9.2 mph - N/A   Clear
4:55 PM 71.6 °F 50.0 °F 46% 29.96 in 10.0 mi West 9.2 mph - N/A   Clear
4:56 PM 71.6 °F 50.0 °F 46% 29.96 in 10.0 mi West 9.2 mph - N/A   Clear
5:18 PM 71.6 °F 50.0 °F 46% 29.96 in 10.0 mi Calm Calm - N/A   Clear
5:37 PM 71.6 °F 50.0 °F 46% 29.96 in 10.0 mi West 8.1 mph - N/A   Clear
5:56 PM 69.8 °F 50.0 °F 49% 29.96 in 10.0 mi Calm Calm - N/A   Clear
6:15 PM 69.8 °F 51.8 °F 53% 29.96 in 10.0 mi Calm Calm - N/A   Clear
6:35 PM 68.0 °F 50.0 °F 52% 29.95 in 10.0 mi Calm Calm - N/A   Clear
6:39 PM 68.0 °F 50.0 °F 52% 29.95 in 10.0 mi Calm Calm - N/A   Clear
6:58 PM 66.2 °F 50.0 °F 56% 29.95 in 10.0 mi Calm Calm - N/A   Clear
7:15 PM 62.6 °F 53.6 °F 72% 29.95 in 10.0 mi Calm Calm - N/A   Clear
7:35 PM 60.8 °F 53.6 °F 77% 29.96 in 10.0 mi Calm Calm - N/A   Clear
7:55 PM 59.0 °F 53.6 °F 82% 29.96 in 10.0 mi Calm Calm - N/A   Clear
7:56 PM 59.0 °F 53.6 °F 82% 29.96 in 10.0 mi Calm Calm - N/A   Clear
8:18 PM 57.2 °F 53.6 °F 88% 29.96 in 10.0 mi Calm Calm - N/A   Clear
8:37 PM 57.2 °F 53.6 °F 88% 29.96 in 10.0 mi Calm Calm - N/A   Clear
8:56 PM 55.4 °F 53.6 °F 94% 29.96 in 10.0 mi Calm Calm - N/A   Clear
9:15 PM 55.4 °F 53.6 °F 94% 29.96 in 10.0 mi Calm Calm - N/A   Clear
9:16 PM 55.4 °F 53.6 °F 94% 29.96 in 10.0 mi Calm Calm - N/A   Clear
9:35 PM 55.4 °F 53.6 °F 94% 29.95 in 10.0 mi Calm Calm - N/A   Clear
9:39 PM 55.4 °F 53.6 °F 94% 29.95 in 10.0 mi Calm Calm - N/A   Clear
9:58 PM 55.4 °F 53.6 °F 94% 29.95 in 10.0 mi Calm Calm - N/A   Clear
10:15 PM 53.6 °F 53.6 °F 100% 29.95 in 10.0 mi Calm Calm - N/A   Clear
10:35 PM 53.6 °F 53.6 °F 100% 29.95 in 10.0 mi Calm Calm - N/A   Clear
10:36 PM 53.6 °F 53.6 °F 100% 29.95 in 10.0 mi Calm Calm - N/A   Clear
10:55 PM 53.6 °F 51.8 °F 94% 29.95 in 10.0 mi Calm Calm - N/A   Clear
10:56 PM 53.6 °F 51.8 °F 94% 29.95 in 10.0 mi Calm Calm - N/A   Clear
11:18 PM 53.6 °F 51.8 °F 94% 29.94 in 10.0 mi Calm Calm - N/A   Clear
11:37 PM 53.6 °F 51.8 °F 94% 29.93 in 10.0 mi Calm Calm - N/A   Clear
11:56 PM 53.6 °F 51.8 °F 94% 29.93 in 10.0 mi Calm Calm - N/A   Clear